Terminal Aerodrome Forecast
Issued by NWS

Home | Current Version | Previous Version | Text Only | Print | Product List | Glossary On
Versions: 1 2 3 4 5 6 7 8 9 10 11 12
000
FTUS43 KUNR 211700
TAFGCC
TAF
KGCC 211724Z 2118/2218 25014KT P6SM OVC080
      TEMPO 2120/2124 -SHRASN
     FM220100 30020G30KT P6SM OVC040
     FM221200 33025G35KT 5SM -SN OVC025=

USA.gov is the U.S. government's official web portal to all federal, state and local government web resources and services.